sensor_id;sensor_type;location;lat;lon;timestamp;P1;durP1;ratioP1;P2;durP2;ratioP2
18532;SDS011;9396;51.510;11.934;2022-12-16T00:01:48;30.38;;;16.15;;
18532;SDS011;9396;51.510;11.934;2022-12-16T00:04:15;32.22;;;17.90;;
18532;SDS011;9396;51.510;11.934;2022-12-16T00:06:42;30.98;;;16.90;;
18532;SDS011;9396;51.510;11.934;2022-12-16T00:09:10;33.13;;;16.23;;
18532;SDS011;9396;51.510;11.934;2022-12-16T00:11:36;29.88;;;15.48;;
18532;SDS011;9396;51.510;11.934;2022-12-16T00:14:03;32.22;;;17.25;;
18532;SDS011;9396;51.510;11.934;2022-12-16T00:16:30;33.53;;;16.70;;
18532;SDS011;9396;51.510;11.934;2022-12-16T00:18:56;27.77;;;16.20;;
18532;SDS011;9396;51.510;11.934;2022-12-16T00:21:23;29.65;;;16.65;;
18532;SDS011;9396;51.510;11.934;2022-12-16T00:23:53;29.70;;;16.05;;
18532;SDS011;9396;51.510;11.934;2022-12-16T00:26:21;32.45;;;16.88;;
18532;SDS011;9396;51.510;11.934;2022-12-16T00:28:48;29.70;;;15.68;;
18532;SDS011;9396;51.510;11.934;2022-12-16T00:31:15;34.28;;;16.40;;
18532;SDS011;9396;51.510;11.934;2022-12-16T00:33:41;30.75;;;16.42;;
18532;SDS011;9396;51.510;11.934;2022-12-16T00:36:08;30.80;;;16.92;;
18532;SDS011;9396;51.510;11.934;2022-12-16T00:38:35;34.45;;;16.23;;
18532;SDS011;9396;51.510;11.934;2022-12-16T00:41:02;26.38;;;15.18;;
18532;SDS011;9396;51.510;11.934;2022-12-16T00:43:30;29.88;;;16.00;;
18532;SDS011;9396;51.510;11.934;2022-12-16T00:45:56;30.65;;;16.08;;
18532;SDS011;9396;51.510;11.934;2022-12-16T00:48:23;30.98;;;15.57;;
18532;SDS011;9396;51.510;11.934;2022-12-16T00:50:50;33.88;;;16.00;;
18532;SDS011;9396;51.510;11.934;2022-12-16T00:53:18;34.05;;;17.05;;
18532;SDS011;9396;51.510;11.934;2022-12-16T00:55:45;37.28;;;17.10;;
18532;SDS011;9396;51.510;11.934;2022-12-16T00:58:12;32.33;;;16.02;;
18532;SDS011;9396;51.510;11.934;2022-12-16T01:00:40;33.75;;;17.00;;
18532;SDS011;9396;51.510;11.934;2022-12-16T01:03:07;35.65;;;18.42;;
18532;SDS011;9396;51.510;11.934;2022-12-16T01:05:33;35.70;;;17.55;;
18532;SDS011;9396;51.510;11.934;2022-12-16T01:08:03;39.90;;;18.90;;
18532;SDS011;9396;51.510;11.934;2022-12-16T01:10:30;34.63;;;16.50;;
18532;SDS011;9396;51.510;11.934;2022-12-16T01:12:56;36.75;;;17.60;;
18532;SDS011;9396;51.510;11.934;2022-12-16T01:15:23;34.40;;;18.27;;
18532;SDS011;9396;51.510;11.934;2022-12-16T01:17:51;36.30;;;16.70;;
18532;SDS011;9396;51.510;11.934;2022-12-16T01:20:18;30.27;;;15.85;;
18532;SDS011;9396;51.510;11.934;2022-12-16T01:22:45;35.50;;;18.02;;
18532;SDS011;9396;51.510;11.934;2022-12-16T01:25:11;30.85;;;15.27;;
18532;SDS011;9396;51.510;11.934;2022-12-16T01:27:38;30.35;;;16.30;;
18532;SDS011;9396;51.510;11.934;2022-12-16T01:30:05;29.45;;;15.40;;
18532;SDS011;9396;51.510;11.934;2022-12-16T01:32:33;29.90;;;15.30;;
18532;SDS011;9396;51.510;11.934;2022-12-16T01:35:01;28.40;;;15.57;;
18532;SDS011;9396;51.510;11.934;2022-12-16T01:37:28;33.55;;;16.42;;
18532;SDS011;9396;51.510;11.934;2022-12-16T01:39:55;30.08;;;16.10;;
18532;SDS011;9396;51.510;11.934;2022-12-16T01:42:21;26.02;;;15.38;;
18532;SDS011;9396;51.510;11.934;2022-12-16T01:44:49;31.17;;;15.90;;
18532;SDS011;9396;51.510;11.934;2022-12-16T01:47:18;33.08;;;16.38;;
18532;SDS011;9396;51.510;11.934;2022-12-16T01:49:50;26.13;;;14.30;;
18532;SDS011;9396;51.510;11.934;2022-12-16T01:52:21;27.95;;;14.82;;
18532;SDS011;9396;51.510;11.934;2022-12-16T01:54:52;30.58;;;15.63;;
18532;SDS011;9396;51.510;11.934;2022-12-16T01:57:25;27.25;;;14.93;;
18532;SDS011;9396;51.510;11.934;2022-12-16T01:59:58;28.27;;;14.75;;
18532;SDS011;9396;51.510;11.934;2022-12-16T02:02:27;27.20;;;15.05;;
18532;SDS011;9396;51.510;11.934;2022-12-16T02:04:54;31.88;;;14.93;;
18532;SDS011;9396;51.510;11.934;2022-12-16T02:07:39;29.75;;;14.40;;
18532;SDS011;9396;51.510;11.934;2022-12-16T02:10:06;25.58;;;13.57;;
18532;SDS011;9396;51.510;11.934;2022-12-16T02:12:37;28.95;;;14.68;;
18532;SDS011;9396;51.510;11.934;2022-12-16T02:15:16;28.92;;;14.88;;
18532;SDS011;9396;51.510;11.934;2022-12-16T02:17:53;27.88;;;15.15;;
18532;SDS011;9396;51.510;11.934;2022-12-16T02:23:44;23.38;;;12.68;;
18532;SDS011;9396;51.510;11.934;2022-12-16T02:26:40;23.60;;;12.82;;
18532;SDS011;9396;51.510;11.934;2022-12-16T02:29:34;23.95;;;12.68;;
18532;SDS011;9396;51.510;11.934;2022-12-16T02:32:18;24.92;;;12.13;;
18532;SDS011;9396;51.510;11.934;2022-12-16T02:34:52;25.08;;;12.40;;
18532;SDS011;9396;51.510;11.934;2022-12-16T02:37:29;25.60;;;11.68;;
18532;SDS011;9396;51.510;11.934;2022-12-16T02:40:05;21.65;;;12.07;;
18532;SDS011;9396;51.510;11.934;2022-12-16T02:42:37;22.13;;;11.82;;
18532;SDS011;9396;51.510;11.934;2022-12-16T02:45:10;23.00;;;12.23;;
18532;SDS011;9396;51.510;11.934;2022-12-16T02:47:42;24.92;;;12.65;;
18532;SDS011;9396;51.510;11.934;2022-12-16T02:50:13;20.02;;;11.65;;
18532;SDS011;9396;51.510;11.934;2022-12-16T02:52:44;23.55;;;11.95;;
18532;SDS011;9396;51.510;11.934;2022-12-16T02:55:11;24.55;;;12.05;;
18532;SDS011;9396;51.510;11.934;2022-12-16T02:57:50;20.65;;;12.23;;
18532;SDS011;9396;51.510;11.934;2022-12-16T03:00:44;19.58;;;11.68;;
18532;SDS011;9396;51.510;11.934;2022-12-16T03:03:22;22.27;;;11.90;;
18532;SDS011;9396;51.510;11.934;2022-12-16T03:05:56;23.58;;;11.75;;
18532;SDS011;9396;51.510;11.934;2022-12-16T03:08:25;24.02;;;11.10;;
18532;SDS011;9396;51.510;11.934;2022-12-16T03:10:57;23.98;;;11.15;;
18532;SDS011;9396;51.510;11.934;2022-12-16T03:13:26;26.27;;;12.30;;
18532;SDS011;9396;51.510;11.934;2022-12-16T03:15:57;25.02;;;11.18;;
18532;SDS011;9396;51.510;11.934;2022-12-16T03:18:27;20.92;;;10.98;;
18532;SDS011;9396;51.510;11.934;2022-12-16T03:20:56;25.10;;;10.88;;
18532;SDS011;9396;51.510;11.934;2022-12-16T03:23:27;19.88;;;11.80;;
18532;SDS011;9396;51.510;11.934;2022-12-16T03:26:00;24.10;;;11.63;;
18532;SDS011;9396;51.510;11.934;2022-12-16T03:28:35;20.17;;;11.00;;
18532;SDS011;9396;51.510;11.934;2022-12-16T03:31:11;18.52;;;10.80;;
18532;SDS011;9396;51.510;11.934;2022-12-16T03:33:46;24.58;;;11.57;;
18532;SDS011;9396;51.510;11.934;2022-12-16T03:36:15;19.77;;;11.02;;
18532;SDS011;9396;51.510;11.934;2022-12-16T03:38:46;19.08;;;11.68;;
18532;SDS011;9396;51.510;11.934;2022-12-16T03:41:14;22.70;;;10.85;;
18532;SDS011;9396;51.510;11.934;2022-12-16T03:43:43;17.83;;;10.77;;
18532;SDS011;9396;51.510;11.934;2022-12-16T03:46:10;17.67;;;10.43;;
18532;SDS011;9396;51.510;11.934;2022-12-16T03:48:45;21.65;;;11.45;;
18532;SDS011;9396;51.510;11.934;2022-12-16T03:51:12;21.38;;;10.60;;
18532;SDS011;9396;51.510;11.934;2022-12-16T03:53:39;23.15;;;12.65;;
18532;SDS011;9396;51.510;11.934;2022-12-16T03:56:06;21.77;;;10.90;;
18532;SDS011;9396;51.510;11.934;2022-12-16T03:58:33;21.23;;;11.60;;
18532;SDS011;9396;51.510;11.934;2022-12-16T04:01:02;21.02;;;10.98;;
18532;SDS011;9396;51.510;11.934;2022-12-16T04:03:28;22.00;;;11.02;;
18532;SDS011;9396;51.510;11.934;2022-12-16T04:05:56;18.40;;;10.77;;
18532;SDS011;9396;51.510;11.934;2022-12-16T04:08:23;21.75;;;11.30;;
18532;SDS011;9396;51.510;11.934;2022-12-16T04:10:50;21.45;;;12.00;;
18532;SDS011;9396;51.510;11.934;2022-12-16T04:13:34;22.05;;;11.75;;
18532;SDS011;9396;51.510;11.934;2022-12-16T04:16:18;22.15;;;11.05;;
18532;SDS011;9396;51.510;11.934;2022-12-16T04:19:02;18.40;;;10.90;;
18532;SDS011;9396;51.510;11.934;2022-12-16T04:21:48;22.23;;;11.57;;
18532;SDS011;9396;51.510;11.934;2022-12-16T04:24:33;21.05;;;11.48;;
18532;SDS011;9396;51.510;11.934;2022-12-16T04:27:00;21.70;;;11.98;;
18532;SDS011;9396;51.510;11.934;2022-12-16T04:29:44;21.60;;;10.77;;
18532;SDS011;9396;51.510;11.934;2022-12-16T04:32:28;24.55;;;12.43;;
18532;SDS011;9396;51.510;11.934;2022-12-16T04:35:17;22.08;;;11.48;;
18532;SDS011;9396;51.510;11.934;2022-12-16T04:38:03;21.75;;;10.77;;
18532;SDS011;9396;51.510;11.934;2022-12-16T04:40:47;20.13;;;12.07;;
18532;SDS011;9396;51.510;11.934;2022-12-16T04:43:31;18.40;;;10.60;;
18532;SDS011;9396;51.510;11.934;2022-12-16T04:46:15;24.50;;;11.32;;
18532;SDS011;9396;51.510;11.934;2022-12-16T04:48:59;22.83;;;11.27;;
18532;SDS011;9396;51.510;11.934;2022-12-16T04:51:43;26.60;;;12.57;;
18532;SDS011;9396;51.510;11.934;2022-12-16T04:54:29;24.40;;;11.60;;
18532;SDS011;9396;51.510;11.934;2022-12-16T04:57:12;24.50;;;11.10;;
18532;SDS011;9396;51.510;11.934;2022-12-16T04:59:56;23.05;;;11.65;;
18532;SDS011;9396;51.510;11.934;2022-12-16T05:02:49;26.25;;;12.50;;
18532;SDS011;9396;51.510;11.934;2022-12-16T05:05:33;23.95;;;11.98;;
18532;SDS011;9396;51.510;11.934;2022-12-16T05:08:17;19.73;;;10.98;;
18532;SDS011;9396;51.510;11.934;2022-12-16T05:11:03;21.88;;;11.25;;
18532;SDS011;9396;51.510;11.934;2022-12-16T05:13:48;20.10;;;11.30;;
18532;SDS011;9396;51.510;11.934;2022-12-16T05:16:32;24.80;;;12.50;;
18532;SDS011;9396;51.510;11.934;2022-12-16T05:19:16;22.65;;;12.00;;
18532;SDS011;9396;51.510;11.934;2022-12-16T05:22:00;23.40;;;11.35;;
18532;SDS011;9396;51.510;11.934;2022-12-16T05:24:44;24.35;;;11.60;;
18532;SDS011;9396;51.510;11.934;2022-12-16T05:27:30;20.25;;;11.23;;
18532;SDS011;9396;51.510;11.934;2022-12-16T05:30:15;24.38;;;12.30;;
18532;SDS011;9396;51.510;11.934;2022-12-16T05:33:00;21.52;;;12.18;;
18532;SDS011;9396;51.510;11.934;2022-12-16T05:35:55;25.50;;;12.02;;
18532;SDS011;9396;51.510;11.934;2022-12-16T05:38:39;20.08;;;11.52;;
18532;SDS011;9396;51.510;11.934;2022-12-16T05:41:24;21.13;;;11.80;;
18532;SDS011;9396;51.510;11.934;2022-12-16T05:44:06;26.60;;;11.85;;
18532;SDS011;9396;51.510;11.934;2022-12-16T05:46:50;22.73;;;12.18;;
18532;SDS011;9396;51.510;11.934;2022-12-16T05:49:34;21.85;;;11.77;;
18532;SDS011;9396;51.510;11.934;2022-12-16T05:52:18;28.98;;;13.15;;
18532;SDS011;9396;51.510;11.934;2022-12-16T05:55:03;19.42;;;11.50;;
18532;SDS011;9396;51.510;11.934;2022-12-16T05:57:48;20.33;;;11.52;;
18532;SDS011;9396;51.510;11.934;2022-12-16T06:00:34;26.73;;;12.52;;
18532;SDS011;9396;51.510;11.934;2022-12-16T06:03:19;21.98;;;11.15;;
18532;SDS011;9396;51.510;11.934;2022-12-16T06:06:03;28.77;;;11.73;;
18532;SDS011;9396;51.510;11.934;2022-12-16T06:08:47;20.92;;;11.27;;
18532;SDS011;9396;51.510;11.934;2022-12-16T06:11:31;25.80;;;12.18;;
18532;SDS011;9396;51.510;11.934;2022-12-16T06:14:15;22.52;;;11.30;;
18532;SDS011;9396;51.510;11.934;2022-12-16T06:17:00;18.35;;;11.55;;
18532;SDS011;9396;51.510;11.934;2022-12-16T06:19:45;22.38;;;11.85;;
18532;SDS011;9396;51.510;11.934;2022-12-16T06:22:29;24.35;;;11.63;;
18532;SDS011;9396;51.510;11.934;2022-12-16T06:25:12;29.63;;;12.93;;
18532;SDS011;9396;51.510;11.934;2022-12-16T06:27:56;23.50;;;12.05;;
18532;SDS011;9396;51.510;11.934;2022-12-16T06:30:40;22.40;;;12.52;;
18532;SDS011;9396;51.510;11.934;2022-12-16T06:33:25;23.63;;;11.60;;
18532;SDS011;9396;51.510;11.934;2022-12-16T06:36:09;24.88;;;12.23;;
18532;SDS011;9396;51.510;11.934;2022-12-16T06:38:54;21.05;;;11.52;;
18532;SDS011;9396;51.510;11.934;2022-12-16T06:41:38;23.63;;;11.77;;
18532;SDS011;9396;51.510;11.934;2022-12-16T06:44:22;20.30;;;10.30;;
18532;SDS011;9396;51.510;11.934;2022-12-16T06:47:06;22.50;;;11.80;;
18532;SDS011;9396;51.510;11.934;2022-12-16T06:49:52;21.45;;;11.75;;
18532;SDS011;9396;51.510;11.934;2022-12-16T06:52:36;18.42;;;10.90;;
18532;SDS011;9396;51.510;11.934;2022-12-16T06:55:20;23.45;;;12.15;;
18532;SDS011;9396;51.510;11.934;2022-12-16T06:58:04;33.83;;;12.70;;
18532;SDS011;9396;51.510;11.934;2022-12-16T07:00:48;23.42;;;12.07;;
18532;SDS011;9396;51.510;11.934;2022-12-16T07:03:32;22.67;;;11.90;;
18532;SDS011;9396;51.510;11.934;2022-12-16T07:06:18;22.02;;;11.57;;
18532;SDS011;9396;51.510;11.934;2022-12-16T07:09:02;23.42;;;12.82;;
18532;SDS011;9396;51.510;11.934;2022-12-16T07:11:46;20.13;;;11.65;;
18532;SDS011;9396;51.510;11.934;2022-12-16T07:14:30;25.15;;;13.32;;
18532;SDS011;9396;51.510;11.934;2022-12-16T07:17:14;30.02;;;13.55;;
18532;SDS011;9396;51.510;11.934;2022-12-16T07:19:58;25.00;;;12.57;;
18532;SDS011;9396;51.510;11.934;2022-12-16T07:22:44;24.20;;;12.38;;
18532;SDS011;9396;51.510;11.934;2022-12-16T07:25:29;24.30;;;13.15;;
18532;SDS011;9396;51.510;11.934;2022-12-16T07:28:13;24.42;;;12.95;;
18532;SDS011;9396;51.510;11.934;2022-12-16T07:30:57;25.35;;;13.57;;
18532;SDS011;9396;51.510;11.934;2022-12-16T07:33:41;29.17;;;14.20;;
18532;SDS011;9396;51.510;11.934;2022-12-16T07:36:25;24.52;;;11.95;;
18532;SDS011;9396;51.510;11.934;2022-12-16T07:39:10;27.65;;;13.63;;
18532;SDS011;9396;51.510;11.934;2022-12-16T07:41:54;24.25;;;12.90;;
18532;SDS011;9396;51.510;11.934;2022-12-16T07:44:38;24.65;;;12.73;;
18532;SDS011;9396;51.510;11.934;2022-12-16T07:47:22;23.30;;;12.75;;
18532;SDS011;9396;51.510;11.934;2022-12-16T07:50:07;23.67;;;12.23;;
18532;SDS011;9396;51.510;11.934;2022-12-16T07:52:54;25.35;;;12.45;;
18532;SDS011;9396;51.510;11.934;2022-12-16T07:55:40;26.55;;;13.50;;
18532;SDS011;9396;51.510;11.934;2022-12-16T07:58:24;24.98;;;13.20;;
18532;SDS011;9396;51.510;11.934;2022-12-16T08:01:08;24.05;;;12.73;;
18532;SDS011;9396;51.510;11.934;2022-12-16T08:03:52;29.48;;;13.80;;
18532;SDS011;9396;51.510;11.934;2022-12-16T08:06:36;23.33;;;12.57;;
18532;SDS011;9396;51.510;11.934;2022-12-16T08:09:20;31.38;;;13.43;;
18532;SDS011;9396;51.510;11.934;2022-12-16T08:12:05;26.13;;;12.20;;
18532;SDS011;9396;51.510;11.934;2022-12-16T08:14:58;25.58;;;12.75;;
18532;SDS011;9396;51.510;11.934;2022-12-16T08:17:46;28.38;;;14.27;;
18532;SDS011;9396;51.510;11.934;2022-12-16T08:20:31;26.58;;;13.95;;
18532;SDS011;9396;51.510;11.934;2022-12-16T08:23:15;24.20;;;12.75;;
18532;SDS011;9396;51.510;11.934;2022-12-16T08:25:59;25.20;;;12.35;;
18532;SDS011;9396;51.510;11.934;2022-12-16T08:28:45;27.70;;;13.85;;
18532;SDS011;9396;51.510;11.934;2022-12-16T08:31:28;30.70;;;13.80;;
18532;SDS011;9396;51.510;11.934;2022-12-16T08:34:12;30.25;;;15.13;;
18532;SDS011;9396;51.510;11.934;2022-12-16T08:36:56;30.42;;;14.85;;
18532;SDS011;9396;51.510;11.934;2022-12-16T08:39:40;28.77;;;14.52;;
18532;SDS011;9396;51.510;11.934;2022-12-16T08:42:24;26.42;;;14.63;;
18532;SDS011;9396;51.510;11.934;2022-12-16T08:45:24;29.27;;;14.68;;
18532;SDS011;9396;51.510;11.934;2022-12-16T08:48:09;27.10;;;15.07;;
18532;SDS011;9396;51.510;11.934;2022-12-16T08:50:54;32.30;;;14.82;;
18532;SDS011;9396;51.510;11.934;2022-12-16T08:53:38;30.60;;;15.05;;
18532;SDS011;9396;51.510;11.934;2022-12-16T08:56:22;30.52;;;15.38;;
18532;SDS011;9396;51.510;11.934;2022-12-16T08:59:06;32.38;;;14.52;;
18532;SDS011;9396;51.510;11.934;2022-12-16T09:01:52;31.67;;;14.52;;
18532;SDS011;9396;51.510;11.934;2022-12-16T09:04:35;25.95;;;15.10;;
18532;SDS011;9396;51.510;11.934;2022-12-16T09:07:19;26.50;;;14.90;;
18532;SDS011;9396;51.510;11.934;2022-12-16T09:10:04;31.23;;;15.73;;
18532;SDS011;9396;51.510;11.934;2022-12-16T09:12:48;30.13;;;14.73;;
18532;SDS011;9396;51.510;11.934;2022-12-16T09:15:32;27.33;;;14.40;;
18532;SDS011;9396;51.510;11.934;2022-12-16T09:18:17;26.92;;;14.85;;
18532;SDS011;9396;51.510;11.934;2022-12-16T09:21:01;27.25;;;14.32;;
18532;SDS011;9396;51.510;11.934;2022-12-16T09:23:46;25.15;;;14.95;;
18532;SDS011;9396;51.510;11.934;2022-12-16T09:26:30;27.60;;;14.48;;
18532;SDS011;9396;51.510;11.934;2022-12-16T09:29:14;25.13;;;14.48;;
18532;SDS011;9396;51.510;11.934;2022-12-16T09:31:58;29.63;;;14.68;;
18532;SDS011;9396;51.510;11.934;2022-12-16T09:34:43;26.05;;;14.50;;
18532;SDS011;9396;51.510;11.934;2022-12-16T09:37:28;22.80;;;13.70;;
18532;SDS011;9396;51.510;11.934;2022-12-16T09:40:13;26.13;;;14.43;;
18532;SDS011;9396;51.510;11.934;2022-12-16T09:42:59;27.00;;;15.07;;
18532;SDS011;9396;51.510;11.934;2022-12-16T09:45:52;24.58;;;14.40;;
18532;SDS011;9396;51.510;11.934;2022-12-16T09:48:44;26.15;;;15.45;;
18532;SDS011;9396;51.510;11.934;2022-12-16T09:51:35;27.30;;;15.68;;
18532;SDS011;9396;51.510;11.934;2022-12-16T09:54:22;28.15;;;15.52;;
18532;SDS011;9396;51.510;11.934;2022-12-16T09:57:09;28.50;;;15.68;;
18532;SDS011;9396;51.510;11.934;2022-12-16T09:59:56;25.35;;;15.57;;
18532;SDS011;9396;51.510;11.934;2022-12-16T10:02:45;26.27;;;14.95;;
18532;SDS011;9396;51.510;11.934;2022-12-16T10:05:33;26.77;;;15.25;;
18532;SDS011;9396;51.510;11.934;2022-12-16T10:08:29;29.73;;;17.30;;
18532;SDS011;9396;51.510;11.934;2022-12-16T10:11:21;34.83;;;17.48;;
18532;SDS011;9396;51.510;11.934;2022-12-16T10:14:11;31.70;;;17.88;;
18532;SDS011;9396;51.510;11.934;2022-12-16T10:17:10;31.88;;;18.38;;
18532;SDS011;9396;51.510;11.934;2022-12-16T10:19:57;35.60;;;18.92;;
18532;SDS011;9396;51.510;11.934;2022-12-16T10:22:46;33.50;;;18.08;;
18532;SDS011;9396;51.510;11.934;2022-12-16T10:25:38;33.53;;;17.60;;
18532;SDS011;9396;51.510;11.934;2022-12-16T10:28:33;33.67;;;17.88;;
18532;SDS011;9396;51.510;11.934;2022-12-16T10:31:25;31.88;;;18.60;;
18532;SDS011;9396;51.510;11.934;2022-12-16T10:34:10;33.50;;;18.13;;
18532;SDS011;9396;51.510;11.934;2022-12-16T10:36:57;33.55;;;18.35;;
18532;SDS011;9396;51.510;11.934;2022-12-16T10:39:43;31.65;;;18.42;;
18532;SDS011;9396;51.510;11.934;2022-12-16T10:42:35;29.20;;;18.50;;
18532;SDS011;9396;51.510;11.934;2022-12-16T10:45:23;31.98;;;18.35;;
18532;SDS011;9396;51.510;11.934;2022-12-16T10:48:12;31.15;;;17.80;;
18532;SDS011;9396;51.510;11.934;2022-12-16T10:50:57;29.80;;;18.67;;
18532;SDS011;9396;51.510;11.934;2022-12-16T10:53:42;34.28;;;18.33;;
18532;SDS011;9396;51.510;11.934;2022-12-16T10:56:33;37.42;;;17.60;;
18532;SDS011;9396;51.510;11.934;2022-12-16T10:59:34;29.02;;;17.55;;
18532;SDS011;9396;51.510;11.934;2022-12-16T11:02:20;33.90;;;17.83;;
18532;SDS011;9396;51.510;11.934;2022-12-16T11:05:21;39.47;;;18.45;;
18532;SDS011;9396;51.510;11.934;2022-12-16T11:08:22;32.40;;;17.33;;
18532;SDS011;9396;51.510;11.934;2022-12-16T11:11:07;34.80;;;17.80;;
18532;SDS011;9396;51.510;11.934;2022-12-16T11:14:07;33.45;;;17.48;;
18532;SDS011;9396;51.510;11.934;2022-12-16T11:17:18;31.42;;;16.52;;
18532;SDS011;9396;51.510;11.934;2022-12-16T11:23:12;30.95;;;17.83;;
18532;SDS011;9396;51.510;11.934;2022-12-16T11:29:11;29.63;;;18.35;;
18532;SDS011;9396;51.510;11.934;2022-12-16T11:31:59;29.85;;;17.38;;
18532;SDS011;9396;51.510;11.934;2022-12-16T11:34:49;30.23;;;18.33;;
18532;SDS011;9396;51.510;11.934;2022-12-16T11:37:37;32.45;;;19.25;;
18532;SDS011;9396;51.510;11.934;2022-12-16T11:40:24;31.00;;;17.75;;
18532;SDS011;9396;51.510;11.934;2022-12-16T11:43:08;26.95;;;17.23;;
18532;SDS011;9396;51.510;11.934;2022-12-16T11:45:56;26.88;;;16.38;;
18532;SDS011;9396;51.510;11.934;2022-12-16T11:48:43;32.63;;;16.20;;
18532;SDS011;9396;51.510;11.934;2022-12-16T11:51:34;31.67;;;16.65;;
18532;SDS011;9396;51.510;11.934;2022-12-16T11:54:21;29.63;;;15.38;;
18532;SDS011;9396;51.510;11.934;2022-12-16T11:57:14;31.33;;;17.38;;
18532;SDS011;9396;51.510;11.934;2022-12-16T12:00:03;29.40;;;15.50;;
18532;SDS011;9396;51.510;11.934;2022-12-16T12:02:51;28.27;;;16.25;;
18532;SDS011;9396;51.510;11.934;2022-12-16T12:05:42;29.00;;;15.73;;
18532;SDS011;9396;51.510;11.934;2022-12-16T12:08:33;29.55;;;15.10;;
18532;SDS011;9396;51.510;11.934;2022-12-16T12:11:26;24.02;;;15.27;;
18532;SDS011;9396;51.510;11.934;2022-12-16T12:14:16;30.33;;;15.45;;
18532;SDS011;9396;51.510;11.934;2022-12-16T12:17:19;30.00;;;16.63;;
18532;SDS011;9396;51.510;11.934;2022-12-16T12:20:33;34.50;;;15.50;;
18532;SDS011;9396;51.510;11.934;2022-12-16T12:23:29;27.30;;;15.77;;
18532;SDS011;9396;51.510;11.934;2022-12-16T12:26:23;31.98;;;17.33;;
18532;SDS011;9396;51.510;11.934;2022-12-16T12:29:14;26.98;;;16.40;;
18532;SDS011;9396;51.510;11.934;2022-12-16T12:32:05;27.00;;;16.55;;
18532;SDS011;9396;51.510;11.934;2022-12-16T12:35:00;32.20;;;16.63;;
18532;SDS011;9396;51.510;11.934;2022-12-16T12:37:57;31.80;;;17.45;;
18532;SDS011;9396;51.510;11.934;2022-12-16T12:40:52;45.67;;;26.98;;
18532;SDS011;9396;51.510;11.934;2022-12-16T12:43:45;38.97;;;22.83;;
18532;SDS011;9396;51.510;11.934;2022-12-16T12:46:37;36.70;;;20.63;;
18532;SDS011;9396;51.510;11.934;2022-12-16T12:49:34;36.23;;;17.53;;
18532;SDS011;9396;51.510;11.934;2022-12-16T12:52:27;32.90;;;19.03;;
18532;SDS011;9396;51.510;11.934;2022-12-16T12:55:27;33.60;;;17.45;;
18532;SDS011;9396;51.510;11.934;2022-12-16T12:58:22;30.60;;;16.83;;
18532;SDS011;9396;51.510;11.934;2022-12-16T13:01:08;32.70;;;17.43;;
18532;SDS011;9396;51.510;11.934;2022-12-16T13:03:55;27.47;;;16.13;;
18532;SDS011;9396;51.510;11.934;2022-12-16T13:06:44;31.20;;;16.73;;
18532;SDS011;9396;51.510;11.934;2022-12-16T13:09:30;27.23;;;15.73;;
18532;SDS011;9396;51.510;11.934;2022-12-16T13:12:20;30.60;;;17.33;;
18532;SDS011;9396;51.510;11.934;2022-12-16T13:15:17;29.07;;;16.83;;
18532;SDS011;9396;51.510;11.934;2022-12-16T13:24:31;29.23;;;16.38;;
18532;SDS011;9396;51.510;11.934;2022-12-16T13:27:25;30.57;;;16.43;;
18532;SDS011;9396;51.510;11.934;2022-12-16T13:30:22;26.63;;;15.88;;
18532;SDS011;9396;51.510;11.934;2022-12-16T13:36:17;27.53;;;15.73;;
18532;SDS011;9396;51.510;11.934;2022-12-16T13:39:16;26.00;;;16.03;;
18532;SDS011;9396;51.510;11.934;2022-12-16T13:42:05;25.93;;;16.47;;
18532;SDS011;9396;51.510;11.934;2022-12-16T13:44:56;27.27;;;15.33;;
18532;SDS011;9396;51.510;11.934;2022-12-16T13:50:47;31.90;;;17.37;;
18532;SDS011;9396;51.510;11.934;2022-12-16T13:53:33;30.90;;;17.17;;
18532;SDS011;9396;51.510;11.934;2022-12-16T13:56:23;29.37;;;18.17;;
18532;SDS011;9396;51.510;11.934;2022-12-16T13:59:13;31.13;;;17.50;;
18532;SDS011;9396;51.510;11.934;2022-12-16T14:02:01;33.37;;;18.27;;
18532;SDS011;9396;51.510;11.934;2022-12-16T14:04:56;30.97;;;17.93;;
18532;SDS011;9396;51.510;11.934;2022-12-16T14:07:41;30.50;;;17.80;;
18532;SDS011;9396;51.510;11.934;2022-12-16T14:10:27;31.33;;;18.33;;
18532;SDS011;9396;51.510;11.934;2022-12-16T14:13:15;28.80;;;18.13;;
18532;SDS011;9396;51.510;11.934;2022-12-16T14:16:06;33.00;;;18.73;;
18532;SDS011;9396;51.510;11.934;2022-12-16T14:19:00;26.67;;;16.67;;
18532;SDS011;9396;51.510;11.934;2022-12-16T14:21:57;30.73;;;17.97;;
18532;SDS011;9396;51.510;11.934;2022-12-16T14:24:47;32.83;;;18.00;;
18532;SDS011;9396;51.510;11.934;2022-12-16T14:27:31;29.50;;;17.10;;
18532;SDS011;9396;51.510;11.934;2022-12-16T14:30:18;33.87;;;19.57;;
18532;SDS011;9396;51.510;11.934;2022-12-16T14:33:20;36.90;;;19.40;;
18532;SDS011;9396;51.510;11.934;2022-12-16T14:36:17;32.90;;;18.03;;
18532;SDS011;9396;51.510;11.934;2022-12-16T14:39:06;28.47;;;17.93;;
18532;SDS011;9396;51.510;11.934;2022-12-16T14:41:52;35.83;;;18.73;;
18532;SDS011;9396;51.510;11.934;2022-12-16T14:44:36;34.10;;;18.53;;
18532;SDS011;9396;51.510;11.934;2022-12-16T14:47:20;39.50;;;21.50;;
18532;SDS011;9396;51.510;11.934;2022-12-16T14:50:14;34.60;;;21.27;;
18532;SDS011;9396;51.510;11.934;2022-12-16T14:53:15;33.67;;;20.07;;
18532;SDS011;9396;51.510;11.934;2022-12-16T14:56:15;33.97;;;19.13;;
18532;SDS011;9396;51.510;11.934;2022-12-16T14:59:07;31.67;;;18.33;;
18532;SDS011;9396;51.510;11.934;2022-12-16T15:01:55;32.60;;;18.57;;
18532;SDS011;9396;51.510;11.934;2022-12-16T15:04:46;31.63;;;19.03;;
18532;SDS011;9396;51.510;11.934;2022-12-16T15:07:32;38.87;;;18.50;;
18532;SDS011;9396;51.510;11.934;2022-12-16T15:10:21;27.73;;;17.90;;
18532;SDS011;9396;51.510;11.934;2022-12-16T15:13:12;30.87;;;17.70;;
18532;SDS011;9396;51.510;11.934;2022-12-16T15:15:58;28.57;;;17.33;;
18532;SDS011;9396;51.510;11.934;2022-12-16T15:18:43;34.30;;;18.07;;
18532;SDS011;9396;51.510;11.934;2022-12-16T15:21:31;28.50;;;17.63;;
18532;SDS011;9396;51.510;11.934;2022-12-16T15:24:16;29.30;;;17.63;;
18532;SDS011;9396;51.510;11.934;2022-12-16T15:27:21;30.83;;;17.77;;
18532;SDS011;9396;51.510;11.934;2022-12-16T15:33:20;27.03;;;17.10;;
18532;SDS011;9396;51.510;11.934;2022-12-16T15:36:05;30.77;;;17.50;;
18532;SDS011;9396;51.510;11.934;2022-12-16T15:38:56;28.37;;;17.37;;
18532;SDS011;9396;51.510;11.934;2022-12-16T15:41:40;30.03;;;17.77;;
18532;SDS011;9396;51.510;11.934;2022-12-16T15:44:44;31.90;;;17.23;;
18532;SDS011;9396;51.510;11.934;2022-12-16T15:47:34;34.87;;;18.17;;
18532;SDS011;9396;51.510;11.934;2022-12-16T15:50:31;33.33;;;17.90;;
18532;SDS011;9396;51.510;11.934;2022-12-16T15:53:24;31.03;;;17.47;;
18532;SDS011;9396;51.510;11.934;2022-12-16T15:56:15;27.07;;;16.17;;
18532;SDS011;9396;51.510;11.934;2022-12-16T15:59:17;28.97;;;16.70;;
18532;SDS011;9396;51.510;11.934;2022-12-16T16:02:08;28.27;;;17.67;;
18532;SDS011;9396;51.510;11.934;2022-12-16T16:04:59;30.30;;;16.07;;
18532;SDS011;9396;51.510;11.934;2022-12-16T16:07:43;33.47;;;17.63;;
18532;SDS011;9396;51.510;11.934;2022-12-16T16:10:27;27.20;;;16.67;;
18532;SDS011;9396;51.510;11.934;2022-12-16T16:13:11;29.17;;;16.50;;
18532;SDS011;9396;51.510;11.934;2022-12-16T16:15:55;23.33;;;15.20;;
18532;SDS011;9396;51.510;11.934;2022-12-16T16:18:40;28.83;;;17.47;;